createdAt,value
2023-02-14T00:00:22.153Z,5.50
2023-02-14T00:02:49.787Z,5.40
2023-02-14T00:05:16.629Z,5.30
2023-02-14T00:07:43.327Z,5.30
2023-02-14T00:10:10.337Z,5.30
2023-02-14T00:12:36.969Z,5.40
2023-02-14T00:15:03.925Z,5.50
2023-02-14T00:17:30.656Z,5.50
2023-02-14T00:19:57.322Z,5.40
2023-02-14T00:22:24.054Z,5.40
2023-02-14T00:24:50.691Z,5.40
2023-02-14T00:27:17.367Z,5.50
2023-02-14T00:29:44.033Z,5.50
2023-02-14T00:32:10.727Z,5.40
2023-02-14T00:34:37.454Z,5.40
2023-02-14T00:37:23.087Z,5.50
2023-02-14T00:39:50.163Z,5.50
2023-02-14T00:42:16.993Z,5.60
2023-02-14T00:44:43.728Z,5.50
2023-02-14T00:47:10.388Z,5.50
2023-02-14T00:49:37.045Z,5.40
2023-02-14T00:52:03.941Z,5.40
2023-02-14T00:54:30.591Z,5.40
2023-02-14T00:56:57.228Z,5.50
2023-02-14T00:59:24.145Z,5.50
2023-02-14T01:01:50.868Z,5.60
2023-02-14T01:04:17.617Z,5.50
2023-02-14T01:06:44.410Z,5.40
2023-02-14T01:09:11.094Z,5.30
2023-02-14T01:11:39.802Z,5.30
2023-02-14T01:14:07.135Z,5.40
2023-02-14T01:16:33.831Z,5.40
2023-02-14T01:19:01.307Z,5.40
2023-02-14T01:21:30.916Z,5.40
2023-02-14T01:24:00.230Z,5.50
2023-02-14T01:26:28.322Z,5.50
2023-02-14T01:28:55.857Z,5.60
2023-02-14T01:31:25.803Z,5.60
2023-02-14T01:33:54.197Z,5.60
2023-02-14T01:36:33.114Z,5.60
2023-02-14T01:39:02.613Z,5.70
2023-02-14T01:41:32.404Z,5.70
2023-02-14T01:44:05.399Z,5.70
2023-02-14T01:46:34.406Z,5.70
2023-02-14T01:49:27.467Z,5.70
2023-02-14T01:52:04.367Z,5.70
2023-02-14T01:54:33.146Z,5.70
2023-02-14T01:57:05.955Z,5.70
2023-02-14T01:59:40.853Z,5.70
2023-02-14T02:02:07.960Z,5.70
2023-02-14T02:04:45.773Z,5.70
2023-02-14T02:07:20.834Z,5.80
2023-02-14T02:09:53.566Z,5.80
2023-02-14T02:12:20.819Z,5.80
2023-02-14T02:14:49.771Z,5.80
2023-02-14T02:17:52.989Z,5.80
2023-02-14T02:20:41.671Z,5.80
2023-02-14T02:23:14.297Z,5.80
2023-02-14T02:25:59.898Z,5.80
2023-02-14T02:28:44.702Z,5.80
2023-02-14T02:31:36.260Z,5.80
2023-02-14T02:34:18.081Z,5.70
2023-02-14T02:37:34.509Z,5.80
2023-02-14T02:40:28.970Z,5.70
2023-02-14T02:43:05.959Z,5.70
2023-02-14T02:45:59.489Z,5.70
2023-02-14T02:48:34.746Z,5.70
2023-02-14T02:51:07.062Z,5.70
2023-02-14T02:53:45.445Z,5.70
2023-02-14T02:56:22.374Z,5.80
2023-02-14T02:58:57.566Z,5.70
2023-02-14T03:01:40.023Z,5.80
2023-02-14T03:04:10.626Z,5.70
2023-02-14T03:06:37.276Z,5.70
2023-02-14T03:09:19.364Z,5.70
2023-02-14T03:12:22.081Z,5.70
2023-02-14T03:15:00.981Z,5.70
2023-02-14T03:17:36.516Z,5.70
2023-02-14T03:20:23.321Z,5.60
2023-02-14T03:23:13.028Z,5.50
2023-02-14T03:26:09.337Z,5.50
2023-02-14T03:28:41.879Z,5.50
2023-02-14T03:31:10.182Z,5.60
2023-02-14T03:33:50.469Z,5.60
2023-02-14T03:36:23.923Z,5.60
2023-02-14T03:38:57.314Z,5.70
2023-02-14T03:41:29.787Z,5.70
2023-02-14T03:44:00.913Z,5.70
2023-02-14T03:46:38.969Z,5.70
2023-02-14T03:49:11.955Z,5.70
2023-02-14T03:51:40.286Z,5.60
2023-02-14T03:54:10.905Z,5.70
2023-02-14T03:56:46.602Z,5.70
2023-02-14T03:59:18.256Z,5.70
2023-02-14T04:01:58.272Z,5.70
2023-02-14T04:04:28.666Z,5.70
2023-02-14T04:06:55.503Z,5.70
2023-02-14T04:09:22.267Z,5.70
2023-02-14T04:11:49.346Z,5.70
2023-02-14T04:14:17.404Z,5.70
2023-02-14T04:16:44.085Z,5.70
2023-02-14T04:19:10.737Z,5.70
2023-02-14T04:21:37.383Z,5.70
2023-02-14T04:24:04.390Z,5.80
2023-02-14T04:26:31.101Z,5.70
2023-02-14T04:28:57.763Z,5.80
2023-02-14T04:31:24.587Z,5.80
2023-02-14T04:33:51.325Z,5.70
2023-02-14T04:36:19.297Z,5.70
2023-02-14T04:38:45.982Z,5.70
2023-02-14T04:41:12.708Z,5.70
2023-02-14T04:43:39.381Z,5.80
2023-02-14T04:46:06.119Z,5.80
2023-02-14T04:48:32.958Z,5.70
2023-02-14T04:50:59.917Z,5.70
2023-02-14T04:53:26.816Z,5.80
2023-02-14T04:55:53.499Z,5.70
2023-02-14T04:58:20.204Z,5.80
2023-02-14T05:00:46.895Z,5.80
2023-02-14T05:03:13.606Z,5.80
2023-02-14T05:05:40.297Z,5.80
2023-02-14T05:08:07.027Z,5.70
2023-02-14T05:10:33.784Z,5.80
2023-02-14T05:13:01.247Z,5.70
2023-02-14T05:15:27.935Z,5.80
2023-02-14T05:17:54.597Z,5.80
2023-02-14T05:20:21.243Z,5.80
2023-02-14T05:22:47.902Z,5.80
2023-02-14T05:25:14.589Z,5.70
2023-02-14T05:27:41.424Z,5.70
2023-02-14T05:30:08.745Z,5.70
2023-02-14T05:32:35.428Z,5.70
2023-02-14T05:35:02.207Z,5.70
2023-02-14T05:37:28.892Z,5.70
2023-02-14T05:39:55.595Z,5.70
2023-02-14T05:42:22.490Z,5.70
2023-02-14T05:44:49.461Z,5.70
2023-02-14T05:47:16.170Z,5.70
2023-02-14T05:49:42.803Z,5.70
2023-02-14T05:52:10.146Z,5.80
2023-02-14T05:54:36.813Z,5.70
2023-02-14T05:57:03.532Z,5.70
2023-02-14T05:59:30.203Z,5.70
2023-02-14T06:01:56.905Z,5.70
2023-02-14T06:04:23.991Z,5.70
2023-02-14T06:06:50.761Z,5.70
2023-02-14T06:09:17.502Z,5.70
2023-02-14T06:11:44.131Z,5.70
2023-02-14T06:14:10.944Z,5.70
2023-02-14T06:16:37.653Z,5.70
2023-02-14T06:19:04.386Z,5.70
2023-02-14T06:21:31.372Z,5.70
2023-02-14T06:23:58.041Z,5.80
2023-02-14T06:26:24.747Z,5.70
2023-02-14T06:28:56.012Z,5.70
2023-02-14T06:31:23.051Z,5.70
2023-02-14T06:33:49.904Z,5.70
2023-02-14T06:36:16.654Z,5.70
2023-02-14T06:38:43.588Z,5.70
2023-02-14T06:41:11.619Z,5.70
2023-02-14T06:43:39.178Z,5.70
2023-02-14T06:46:06.003Z,5.80
2023-02-14T06:48:32.813Z,5.70
2023-02-14T06:50:59.847Z,5.80
2023-02-14T06:53:26.870Z,5.80
2023-02-14T06:55:53.685Z,5.80
2023-02-14T06:58:20.560Z,5.90
2023-02-14T07:00:47.989Z,5.90
2023-02-14T07:03:15.105Z,5.90
2023-02-14T07:05:41.808Z,5.90
2023-02-14T07:08:08.481Z,5.90
2023-02-14T07:10:35.293Z,5.90
2023-02-14T07:13:02.005Z,5.90
2023-02-14T07:15:28.870Z,5.90
2023-02-14T07:17:55.620Z,5.90
2023-02-14T07:20:22.645Z,6.00
2023-02-14T07:22:49.296Z,6.00
2023-02-14T07:25:16.303Z,6.00
2023-02-14T07:27:44.635Z,6.00
2023-02-14T07:30:12.077Z,6.00
2023-02-14T07:32:39.576Z,6.00
2023-02-14T07:35:06.989Z,6.00
2023-02-14T07:37:35.220Z,6.10
2023-02-14T07:40:02.619Z,6.10
2023-02-14T07:42:29.512Z,6.10
2023-02-14T07:44:56.191Z,6.10
2023-02-14T07:47:22.905Z,6.20
2023-02-14T07:49:49.597Z,6.20
2023-02-14T07:52:16.354Z,6.20
2023-02-14T07:54:43.034Z,6.20
2023-02-14T07:57:09.838Z,6.30
2023-02-14T07:59:36.526Z,6.30
2023-02-14T08:02:03.420Z,6.30
2023-02-14T08:04:32.240Z,6.30
2023-02-14T08:07:00.271Z,6.30
2023-02-14T08:09:26.974Z,6.40
2023-02-14T08:11:58.322Z,6.30
2023-02-14T08:14:25.000Z,6.40
2023-02-14T08:16:51.721Z,6.40
2023-02-14T08:19:18.463Z,6.40
2023-02-14T08:21:45.139Z,6.50
2023-02-14T08:24:11.801Z,6.50
2023-02-14T08:26:38.486Z,6.50
2023-02-14T08:29:05.304Z,6.50
2023-02-14T08:31:36.600Z,6.50
2023-02-14T08:34:07.401Z,6.60
2023-02-14T08:36:34.189Z,6.60
2023-02-14T08:39:01.355Z,6.50
2023-02-14T08:41:28.130Z,6.60
2023-02-14T08:43:54.931Z,6.60
2023-02-14T08:46:21.718Z,6.60
2023-02-14T08:48:48.418Z,6.70
2023-02-14T08:51:15.187Z,6.70
2023-02-14T08:53:42.894Z,6.70
2023-02-14T08:56:12.457Z,6.70
2023-02-14T08:58:40.081Z,6.80
2023-02-14T09:01:11.793Z,6.80
2023-02-14T09:03:39.054Z,6.80
2023-02-14T09:06:11.619Z,6.80
2023-02-14T09:08:39.493Z,6.90
2023-02-14T09:11:15.301Z,6.90
2023-02-14T09:13:42.547Z,7.00
2023-02-14T09:16:11.770Z,7.00
2023-02-14T09:18:38.880Z,6.90
2023-02-14T09:21:10.948Z,6.90
2023-02-14T09:23:38.859Z,7.00
2023-02-14T09:26:10.531Z,7.00
2023-02-14T09:28:38.137Z,7.10
2023-02-14T09:31:12.969Z,7.10
2023-02-14T09:33:40.549Z,7.20
2023-02-14T09:36:07.729Z,7.20
2023-02-14T09:38:34.472Z,7.20
2023-02-14T09:41:06.356Z,7.20
2023-02-14T09:43:51.335Z,7.20
2023-02-14T09:46:19.223Z,7.30
2023-02-14T09:48:48.377Z,7.30
2023-02-14T09:51:21.392Z,7.40
2023-02-14T09:53:52.181Z,7.40
2023-02-14T09:56:53.110Z,7.40
2023-02-14T09:59:43.873Z,7.50
2023-02-14T10:02:10.582Z,7.40
2023-02-14T10:05:00.878Z,7.50
2023-02-14T10:07:40.136Z,7.50
2023-02-14T10:10:31.111Z,7.50
2023-02-14T10:12:57.806Z,7.60
2023-02-14T10:15:32.441Z,7.50
2023-02-14T10:18:07.850Z,7.50
2023-02-14T10:20:52.576Z,7.60
2023-02-14T10:23:31.901Z,7.60
2023-02-14T10:26:08.284Z,7.60
2023-02-14T10:28:44.149Z,7.70
2023-02-14T10:31:25.852Z,7.70
2023-02-14T10:34:00.333Z,7.60
2023-02-14T10:36:45.136Z,7.60
2023-02-14T10:39:27.202Z,7.60
2023-02-14T10:42:33.265Z,7.70
2023-02-14T10:45:18.810Z,7.60
2023-02-14T10:48:28.295Z,7.60
2023-02-14T10:51:21.628Z,7.70
2023-02-14T10:54:17.367Z,7.70
2023-02-14T10:56:55.667Z,7.70
2023-02-14T10:59:48.779Z,7.70
2023-02-14T11:02:18.158Z,7.70
2023-02-14T11:04:46.268Z,7.70
2023-02-14T11:07:17.815Z,7.80
2023-02-14T11:09:45.118Z,7.80
2023-02-14T11:12:12.208Z,7.80
2023-02-14T11:14:39.853Z,7.80
2023-02-14T11:17:28.379Z,7.80
2023-02-14T11:20:00.914Z,7.90
2023-02-14T11:22:33.252Z,7.90
2023-02-14T11:25:18.899Z,7.90
2023-02-14T11:27:47.462Z,7.90
2023-02-14T11:30:44.011Z,7.90
2023-02-14T11:33:30.891Z,7.90
2023-02-14T11:35:58.369Z,7.80
2023-02-14T11:38:34.126Z,7.80
2023-02-14T11:41:01.406Z,7.80
2023-02-14T11:43:37.510Z,7.90
2023-02-14T11:46:27.208Z,7.90
2023-02-14T11:48:57.384Z,7.90
2023-02-14T11:51:39.090Z,7.90
2023-02-14T11:54:06.428Z,7.90
2023-02-14T11:56:54.960Z,8.00
2023-02-14T11:59:32.529Z,8.00
2023-02-14T12:02:04.050Z,8.00
2023-02-14T12:04:44.808Z,8.00
2023-02-14T12:07:16.387Z,8.10
2023-02-14T12:09:43.404Z,8.10
2023-02-14T12:12:22.785Z,8.00
2023-02-14T12:14:49.893Z,7.90
2023-02-14T12:17:31.552Z,7.80
2023-02-14T12:19:58.266Z,7.80
2023-02-14T12:22:39.117Z,7.90
2023-02-14T12:25:15.972Z,8.00
2023-02-14T12:28:09.584Z,8.00
2023-02-14T12:30:36.535Z,8.00
2023-02-14T12:33:03.478Z,8.10
2023-02-14T12:35:48.515Z,8.10
2023-02-14T12:38:28.556Z,8.20
2023-02-14T12:41:20.965Z,8.10
2023-02-14T12:43:56.630Z,8.10
2023-02-14T12:46:32.004Z,8.10
2023-02-14T12:49:17.255Z,8.10
2023-02-14T12:52:12.128Z,8.10
2023-02-14T12:55:13.752Z,8.10
2023-02-14T12:57:43.510Z,8.10
2023-02-14T13:00:10.212Z,8.20
2023-02-14T13:03:06.978Z,8.20
2023-02-14T13:05:53.357Z,8.30
2023-02-14T13:08:31.552Z,8.30
2023-02-14T13:11:22.529Z,8.30
2023-02-14T13:14:20.905Z,8.30
2023-02-14T13:16:56.181Z,8.20
2023-02-14T13:19:23.107Z,8.20
2023-02-14T13:21:50.499Z,8.20
2023-02-14T13:24:22.906Z,8.30
2023-02-14T13:26:53.904Z,8.30
2023-02-14T13:29:24.754Z,8.20
2023-02-14T13:31:57.684Z,8.20
2023-02-14T13:34:27.092Z,8.20
2023-02-14T13:36:57.001Z,8.20
2023-02-14T13:39:45.510Z,8.20
2023-02-14T13:42:12.840Z,8.20
2023-02-14T13:44:47.577Z,8.10
2023-02-14T13:47:24.715Z,8.10
2023-02-14T13:50:00.725Z,8.10
2023-02-14T13:52:46.307Z,8.10
2023-02-14T13:55:20.220Z,8.00
2023-02-14T13:58:00.162Z,8.00
2023-02-14T14:00:50.996Z,7.90
2023-02-14T14:03:30.025Z,7.90
2023-02-14T14:06:08.595Z,7.90
2023-02-14T14:08:36.170Z,7.80
2023-02-14T14:11:12.497Z,7.70
2023-02-14T14:13:42.070Z,7.60
2023-02-14T14:16:24.398Z,7.60
2023-02-14T14:18:58.110Z,7.60
2023-02-14T14:21:34.021Z,7.70
2023-02-14T14:24:06.707Z,7.70
2023-02-14T14:26:40.195Z,7.70
2023-02-14T14:29:17.749Z,7.70
2023-02-14T14:31:46.290Z,7.60
2023-02-14T14:34:20.183Z,7.60
2023-02-14T14:36:47.091Z,7.50
2023-02-14T14:39:26.831Z,7.40
2023-02-14T14:41:53.708Z,7.40
2023-02-14T14:44:20.664Z,7.50
2023-02-14T14:46:47.347Z,7.50
2023-02-14T14:49:16.876Z,7.50
2023-02-14T14:51:43.741Z,7.50
2023-02-14T14:54:18.027Z,7.40
2023-02-14T14:56:56.546Z,7.40
2023-02-14T14:59:35.070Z,7.30
2023-02-14T15:02:03.690Z,7.10
2023-02-14T15:04:35.397Z,7.10
2023-02-14T15:07:32.484Z,7.10
2023-02-14T15:10:00.224Z,7.10
2023-02-14T15:12:27.481Z,7.00
2023-02-14T15:14:54.466Z,6.90
2023-02-14T15:17:27.524Z,6.90
2023-02-14T15:20:04.469Z,6.90
2023-02-14T15:22:41.541Z,6.70
2023-02-14T15:25:11.506Z,6.70
2023-02-14T15:27:42.072Z,6.60
2023-02-14T15:30:27.965Z,6.50
2023-02-14T15:32:55.087Z,6.50
2023-02-14T15:35:26.348Z,6.40
2023-02-14T15:37:53.635Z,6.30
2023-02-14T15:40:29.056Z,6.30
2023-02-14T15:42:55.879Z,6.20
2023-02-14T15:45:26.673Z,6.30
2023-02-14T15:48:03.935Z,6.30
2023-02-14T15:50:33.832Z,6.40
2023-02-14T15:53:27.839Z,6.40
2023-02-14T15:56:01.336Z,6.50
2023-02-14T15:58:30.653Z,6.50
2023-02-14T16:00:57.474Z,6.50
2023-02-14T16:03:27.505Z,6.50
2023-02-14T16:05:54.941Z,6.50
2023-02-14T16:08:37.698Z,6.50
2023-02-14T16:11:11.801Z,6.50
2023-02-14T16:13:40.185Z,6.50
2023-02-14T16:16:09.832Z,6.60
2023-02-14T16:18:40.089Z,6.60
2023-02-14T16:21:20.833Z,6.60
2023-02-14T16:24:07.606Z,6.50
2023-02-14T16:26:36.436Z,6.50
2023-02-14T16:29:14.358Z,6.30
2023-02-14T16:32:06.232Z,6.20
2023-02-14T16:34:34.482Z,6.10
2023-02-14T16:37:24.370Z,6.10
2023-02-14T16:39:55.020Z,6.20
2023-02-14T16:42:21.933Z,6.20
2023-02-14T16:44:49.049Z,6.20
2023-02-14T16:47:17.709Z,6.30
2023-02-14T16:49:45.150Z,6.20
2023-02-14T16:52:19.142Z,6.30
2023-02-14T16:54:45.827Z,6.30
2023-02-14T16:57:27.904Z,6.30
2023-02-14T16:59:56.194Z,6.20
2023-02-14T17:02:23.170Z,6.30
2023-02-14T17:04:49.852Z,6.20
2023-02-14T17:07:16.779Z,6.20
2023-02-14T17:09:49.750Z,6.20
2023-02-14T17:12:20.984Z,6.10
2023-02-14T17:14:51.574Z,6.10
2023-02-14T17:17:18.742Z,6.10
2023-02-14T17:19:45.785Z,6.10
2023-02-14T17:22:13.182Z,6.10
2023-02-14T17:24:40.502Z,6.00
2023-02-14T17:27:07.326Z,6.10
2023-02-14T17:29:34.352Z,6.00
2023-02-14T17:32:01.476Z,6.00
2023-02-14T17:34:32.789Z,6.00
2023-02-14T17:36:59.637Z,6.00
2023-02-14T17:39:26.448Z,6.10
2023-02-14T17:41:53.259Z,6.10
2023-02-14T17:44:20.059Z,6.10
2023-02-14T17:46:46.860Z,6.10
2023-02-14T17:49:13.761Z,6.10
2023-02-14T17:51:40.505Z,6.20
2023-02-14T17:54:07.207Z,6.20
2023-02-14T17:56:33.932Z,6.10
2023-02-14T17:59:00.628Z,6.10
2023-02-14T18:01:29.783Z,6.10
2023-02-14T18:03:56.766Z,6.10
2023-02-14T18:06:23.629Z,6.00
2023-02-14T18:08:51.108Z,6.00
2023-02-14T18:11:19.770Z,6.00
2023-02-14T18:13:46.923Z,6.00
2023-02-14T18:16:16.129Z,5.90
2023-02-14T18:18:42.966Z,5.90
2023-02-14T18:21:12.019Z,5.60
2023-02-14T18:23:38.923Z,5.60
2023-02-14T18:26:08.172Z,5.50
2023-02-14T18:28:35.567Z,5.40
2023-02-14T18:31:04.366Z,5.40
2023-02-14T18:33:31.160Z,5.40
2023-02-14T18:36:00.735Z,5.50
2023-02-14T18:38:27.425Z,5.50
2023-02-14T18:40:54.311Z,5.40
2023-02-14T18:43:21.081Z,5.50
2023-02-14T18:45:47.799Z,5.50
2023-02-14T18:48:14.551Z,5.60
2023-02-14T18:50:41.242Z,5.60
2023-02-14T18:53:07.929Z,5.70
2023-02-14T18:55:36.516Z,5.70
2023-02-14T18:58:03.334Z,5.70
2023-02-14T19:00:29.989Z,5.70
2023-02-14T19:02:56.778Z,5.70
2023-02-14T19:05:23.559Z,5.70
2023-02-14T19:07:54.626Z,5.70
2023-02-14T19:10:21.467Z,5.60
2023-02-14T19:12:48.565Z,5.50
2023-02-14T19:15:15.405Z,5.40
2023-02-14T19:17:42.120Z,5.50
2023-02-14T19:20:09.328Z,5.50
2023-02-14T19:22:40.386Z,5.50
2023-02-14T19:25:08.165Z,5.60
2023-02-14T19:27:35.481Z,5.50
2023-02-14T19:30:02.541Z,5.50
2023-02-14T19:32:29.271Z,5.50
2023-02-14T19:34:55.986Z,5.40
2023-02-14T19:37:22.711Z,5.40
2023-02-14T19:39:50.206Z,5.40
2023-02-14T19:42:16.860Z,5.40
2023-02-14T19:44:43.725Z,5.40
2023-02-14T19:47:25.581Z,5.40
2023-02-14T19:49:57.179Z,5.40
2023-02-14T19:52:26.711Z,5.50
2023-02-14T19:54:54.368Z,5.50
2023-02-14T19:57:21.600Z,5.50
2023-02-14T19:59:48.470Z,5.60
2023-02-14T20:02:17.829Z,5.60
2023-02-14T20:04:44.815Z,5.50
2023-02-14T20:07:11.961Z,5.50
2023-02-14T20:09:38.694Z,5.50
2023-02-14T20:12:05.654Z,5.60
2023-02-14T20:14:47.144Z,5.60
2023-02-14T20:17:17.794Z,5.60
2023-02-14T20:19:44.464Z,5.40
2023-02-14T20:22:11.167Z,5.40
2023-02-14T20:24:37.864Z,5.30
2023-02-14T20:27:04.558Z,5.20
2023-02-14T20:29:31.266Z,5.20
2023-02-14T20:31:59.103Z,5.20
2023-02-14T20:34:26.897Z,5.20
2023-02-14T20:36:56.379Z,5.20
2023-02-14T20:39:36.055Z,5.20
2023-02-14T20:42:02.938Z,5.30
2023-02-14T20:44:30.261Z,5.20
2023-02-14T20:46:57.961Z,5.10
2023-02-14T20:49:26.251Z,5.10
2023-02-14T20:51:53.136Z,5.10
2023-02-14T20:54:22.442Z,5.10
2023-02-14T20:56:49.806Z,5.20
2023-02-14T20:59:17.384Z,5.20
2023-02-14T21:01:44.186Z,5.20
2023-02-14T21:04:10.943Z,5.20
2023-02-14T21:06:39.890Z,5.30
2023-02-14T21:09:06.908Z,5.30
2023-02-14T21:11:33.621Z,5.30
2023-02-14T21:14:01.522Z,5.40
2023-02-14T21:16:29.564Z,5.30
2023-02-14T21:18:58.392Z,5.20
2023-02-14T21:21:36.507Z,5.20
2023-02-14T21:24:11.867Z,5.10
2023-02-14T21:26:39.339Z,5.10
2023-02-14T21:29:06.416Z,5.10
2023-02-14T21:31:33.728Z,5.20
2023-02-14T21:34:02.418Z,5.20
2023-02-14T21:36:31.659Z,5.20
2023-02-14T21:38:59.717Z,5.30
2023-02-14T21:41:29.771Z,5.30
2023-02-14T21:43:58.650Z,5.30
2023-02-14T21:46:32.130Z,5.30
2023-02-14T21:49:00.756Z,5.30
2023-02-14T21:51:27.512Z,5.20
2023-02-14T21:53:55.150Z,5.30
2023-02-14T21:56:22.896Z,5.20
2023-02-14T21:58:52.031Z,5.20
2023-02-14T22:01:21.974Z,5.20
2023-02-14T22:03:48.955Z,5.20
2023-02-14T22:06:16.163Z,5.20
2023-02-14T22:08:43.785Z,5.20
2023-02-14T22:11:13.169Z,5.20
2023-02-14T22:13:40.555Z,5.20
2023-02-14T22:16:12.116Z,5.20
2023-02-14T22:18:39.469Z,5.20
2023-02-14T22:21:08.635Z,5.10
2023-02-14T22:23:35.651Z,5.10
2023-02-14T22:26:32.293Z,5.00
2023-02-14T22:28:59.925Z,5.00
2023-02-14T22:31:29.257Z,4.90
2023-02-14T22:33:56.403Z,4.90
2023-02-14T22:36:23.617Z,4.90
2023-02-14T22:38:50.344Z,4.90
2023-02-14T22:41:20.288Z,4.90
2023-02-14T22:43:47.107Z,4.90
2023-02-14T22:46:22.608Z,4.80
2023-02-14T22:48:50.563Z,4.70
2023-02-14T22:51:20.023Z,4.70
2023-02-14T22:53:47.429Z,4.80
2023-02-14T22:56:26.384Z,4.80
2023-02-14T22:58:54.898Z,4.80
2023-02-14T23:01:22.352Z,4.70
2023-02-14T23:03:52.351Z,4.70
2023-02-14T23:06:19.149Z,4.70
2023-02-14T23:08:46.974Z,4.70
2023-02-14T23:11:16.397Z,4.70
2023-02-14T23:13:43.255Z,4.70
2023-02-14T23:16:10.038Z,4.70
2023-02-14T23:18:36.808Z,4.70
2023-02-14T23:21:03.556Z,4.70
2023-02-14T23:23:31.474Z,4.70
2023-02-14T23:25:58.642Z,4.70
2023-02-14T23:28:25.922Z,4.70
2023-02-14T23:30:53.025Z,4.70
2023-02-14T23:33:19.754Z,4.70
2023-02-14T23:35:46.445Z,4.60
2023-02-14T23:38:13.103Z,4.60
2023-02-14T23:40:39.817Z,4.60
2023-02-14T23:43:06.530Z,4.60
2023-02-14T23:45:33.252Z,4.60
2023-02-14T23:48:05.792Z,4.60
2023-02-14T23:50:32.674Z,4.50
2023-02-14T23:52:59.878Z,4.50
2023-02-14T23:55:26.649Z,4.50
2023-02-14T23:57:53.346Z,4.50
